This is the latest recevied weather packets stored in our database for station/object OK1UOJ. If no packets are shown the sender has not sent any weather packets the latest 10 day(s).
| Time | Temp. | Humidity | Pressure | Rain* | Wind** | Luminosity | Snow |
|---|---|---|---|---|---|---|---|
| 1777831565 | 18.89° C | 51% | 1015.8 hPa | - | - | - | - |
| 1777831292 | 18.89° C | 51% | 1015.7 hPa | - | - | - | - |
| 1777831287 | 18.89° C | 51% | 1015.7 hPa | - | - | - | - |
| 1777831014 | 18.33° C | 53% | 1015.8 hPa | - | - | - | - |
| 1777831009 | 18.33° C | 53% | 1015.8 hPa | - | - | - | - |
| 1777830737 | 18.33° C | 53% | 1015.8 hPa | - | - | - | - |
| 1777830732 | 18.33° C | 53% | 1015.8 hPa | - | - | - | - |
| 1777830181 | 19.44° C | 50% | 1015.8 hPa | - | - | - | - |
| 1777830176 | 19.44° C | 50% | 1015.8 hPa | - | - | - | - |
| 1777829903 | 19.44° C | 47% | 1015.9 hPa | - | - | - | - |
| 1777829903 | 19.44° C | 47% | 1015.9 hPa | - | - | - | - |
| 1777829898 | 19.44° C | 47% | 1015.9 hPa | - | - | - | - |
| 1777829064 | 20° C | 48% | 1015.9 hPa | - | - | - | - |
| 1777828235 | 20.56° C | 42% | 1015.9 hPa | - | - | - | - |
| 1777828230 | 20.56° C | 42% | 1015.9 hPa | - | - | - | - |
| 1777827953 | 21.11° C | 43% | 1015.9 hPa | - | - | - | - |
| 1777827401 | 21.11° C | 43% | 1015.9 hPa | - | - | - | - |
| 1777827396 | 21.11° C | 43% | 1015.9 hPa | - | - | - | - |
| 1777826567 | 21.67° C | - | - | - | - | - | - |
| 1777826563 | 21.67° C | 41% | 1016 hPa | - | - | - | - |
| 1777826284 | 21.67° C | 41% | 1016 hPa | - | - | - | - |
| 1777826006 | 21.67° C | 41% | 1016 hPa | - | - | - | - |
| 1777825815 | 21.67° C | 40% | 1016 hPa | - | - | - | - |
| 1777825728 | 21.67° C | 40% | 1016 hPa | - | - | - | - |
| 1777824616 | 22.22° C | 38% | 1016 hPa | - | - | - | - |
* Rain since midnight (hover to see other rain measurements)
** Current wind speed in m/s (hover to see current wind gust speed)